Time;durP1;ratioP1;P1;durP2;ratioP2;P2;SDS_P1;SDS_P2;PMS_P1;PMS_P2;Temp;Humidity;BMP_temperature;BMP_pressure;BME280_temperature;BME280_humidity;BME280_pressure;Samples;Min_cycle;Max_cycle;Signal;HPM_P1;HPM_P2
2021/04/21 00:00:09;;;;;;;22.40;11.68;;;4.40;99.90;;;;;;6197372;23;20020;-89
2021/04/21 00:02:35;;;;;;;;;;;4.30;99.90;;;;;;6220673;23;20035;-91
2021/04/21 00:05:02;;;;;;;16.85;9.07;;;4.30;99.90;;;;;;6162560;23;19916;-89
2021/04/21 00:07:30;;;;;;;15.80;10.02;;;4.20;99.90;;;;;;6213273;23;20013;-89
2021/04/21 00:09:59;;;;;;;15.07;9.45;;;4.20;99.90;;;;;;6187995;23;20091;-89
2021/04/21 00:12:25;;;;;;;25.30;10.50;;;4.00;99.90;;;;;;6186450;23;20105;-89
2021/04/21 00:14:53;;;;;;;21.08;12.85;;;4.00;99.90;;;;;;6187489;23;20385;-90
2021/04/21 00:17:21;;;;;;;22.35;12.55;;;4.00;99.90;;;;;;6186522;23;20032;-91
2021/04/21 00:19:49;;;;;;;18.90;11.70;;;4.00;99.90;;;;;;6187048;23;20020;-89
2021/04/21 00:22:17;;;;;;;24.35;13.20;;;4.00;99.90;;;;;;6213254;23;20330;-89
2021/04/21 00:24:46;;;;;;;21.15;13.02;;;4.00;99.90;;;;;;6187131;23;20020;-90
2021/04/21 00:27:18;;;;;;;20.85;12.07;;;3.90;99.90;;;;;;6212889;23;20044;-91
2021/04/21 00:29:47;;;;;;;19.20;12.68;;;4.00;99.90;;;;;;6213807;23;20024;-90
2021/04/21 00:32:14;;;;;;;21.25;12.85;;;3.90;99.90;;;;;;6186971;23;20435;-91
2021/04/21 00:34:43;;;;;;;19.38;12.73;;;3.90;99.90;;;;;;6187185;23;20021;-89
2021/04/21 00:37:10;;;;;;;22.88;12.95;;;3.90;99.90;;;;;;6187208;23;20016;-89
2021/04/21 00:39:41;;;;;;;20.80;12.70;;;3.90;99.90;;;;;;6186117;23;20020;-89
2021/04/21 00:42:07;;;;;;;23.77;12.90;;;3.90;99.90;;;;;;6186581;23;20462;-89
2021/04/21 00:45:05;;;;;;;21.25;13.13;;;3.90;99.90;;;;;;6213317;23;20076;-89
2021/04/21 00:47:41;;;;;;;24.55;12.63;;;3.90;99.90;;;;;;6186957;23;20017;-89
2021/04/21 00:50:13;;;;;;;23.00;13.20;;;3.90;99.90;;;;;;6223626;23;20461;-89
2021/04/21 00:52:52;;;;;;;19.45;12.23;;;3.90;99.90;;;;;;6186812;23;20375;-89
2021/04/21 00:55:30;;;;;;;23.52;11.93;;;3.90;99.90;;;;;;6186673;23;20020;-90
2021/04/21 00:58:11;;;;;;;22.00;13.30;;;3.80;99.90;;;;;;6187425;23;20439;-91
2021/04/21 01:00:45;;;;;;;12.55;9.57;;;3.80;99.90;;;;;;6196922;23;20017;-88
2021/04/21 01:03:13;;;;;;;14.95;9.93;;;3.60;99.90;;;;;;6216213;23;20480;-90
2021/04/21 01:05:42;;;;;;;29.67;13.50;;;3.50;99.90;;;;;;6213307;23;20934;-89
2021/04/21 01:08:12;;;;;;;19.35;11.73;;;3.60;99.90;;;;;;6187340;23;20017;-89
2021/04/21 01:10:55;;;;;;;20.20;11.52;;;3.60;99.90;;;;;;6186704;23;20442;-89
2021/04/21 01:13:22;;;;;;;18.33;10.52;;;3.60;99.90;;;;;;6186849;23;20092;-90
2021/04/21 01:15:50;;;;;;;22.85;12.48;;;3.60;99.90;;;;;;6186958;23;20024;-88
2021/04/21 01:18:17;;;;;;;23.88;11.55;;;3.50;99.90;;;;;;6212113;23;20017;-91
2021/04/21 01:21:16;;;;;;;21.00;11.77;;;3.50;99.90;;;;;;6213231;23;20024;-88
2021/04/21 01:23:51;;;;;;;15.80;11.23;;;3.50;99.90;;;;;;6223065;23;20012;-89
2021/04/21 01:26:33;;;;;;;18.40;9.68;;;3.50;99.90;;;;;;6213101;23;20025;-91
2021/04/21 01:29:01;;;;;;;18.35;10.68;;;3.40;99.90;;;;;;6196866;23;20012;-90
2021/04/21 01:31:32;;;;;;;17.27;11.05;;;3.30;99.90;;;;;;6185955;23;20040;-89
2021/04/21 01:33:59;;;;;;;18.77;11.88;;;3.30;99.90;;;;;;6213044;23;20454;-89
2021/04/21 01:36:27;;;;;;;18.20;10.02;;;3.20;99.90;;;;;;6186733;23;20024;-89
2021/04/21 01:38:57;;;;;;;17.40;10.98;;;3.20;99.90;;;;;;6187189;23;20082;-89
2021/04/21 01:41:27;;;;;;;16.95;10.32;;;3.10;99.90;;;;;;6213184;23;20498;-89
2021/04/21 01:44:02;;;;;;;13.77;8.82;;;3.10;99.90;;;;;;6187145;23;20435;-88
2021/04/21 01:46:31;;;;;;;17.17;11.90;;;3.00;99.90;;;;;;6222819;23;20016;-89
2021/04/21 01:49:09;;;;;;;20.50;11.05;;;3.10;99.90;;;;;;6187036;23;20013;-89
2021/04/21 01:51:40;;;;;;;13.98;9.70;;;2.90;99.90;;;;;;6196439;23;20024;-87
2021/04/21 01:54:13;;;;;;;19.60;10.48;;;3.00;99.90;;;;;;6213451;23;20433;-89
2021/04/21 01:56:50;;;;;;;13.90;10.48;;;3.00;99.90;;;;;;6196555;23;20013;-89
2021/04/21 01:59:20;;;;;;;17.10;9.05;;;2.90;99.90;;;;;;6187034;23;20099;-88
2021/04/21 02:01:57;;;;;;;14.70;9.80;;;2.90;99.90;;;;;;6187011;23;20741;-88
2021/04/21 02:04:48;;;;;;;12.02;8.10;;;2.80;99.90;;;;;;6184617;23;20053;-89
2021/04/21 02:07:51;;;;;;;18.65;10.70;;;2.80;99.90;;;;;;6222554;23;20042;-89
2021/04/21 02:10:48;;;;;;;28.98;12.27;;;2.70;99.90;;;;;;6212361;23;20047;-88
2021/04/21 02:13:28;;;;;;;24.60;13.25;;;2.80;99.90;;;;;;6186069;23;20096;-88
2021/04/21 02:16:16;;;;;;;23.58;15.43;;;2.70;99.90;;;;;;6212483;23;20705;-91
2021/04/21 02:18:57;;;;;;;25.05;16.10;;;2.70;99.90;;;;;;6186015;23;20008;-88
2021/04/21 02:21:35;;;;;;;36.38;15.82;;;2.70;99.90;;;;;;6196257;23;20021;-92
2021/04/21 02:24:04;;;;;;;25.60;16.05;;;2.70;99.90;;;;;;6196528;23;20013;-89
2021/04/21 02:26:42;;;;;;;18.67;13.63;;;2.70;99.90;;;;;;6185900;23;20024;-89
2021/04/21 02:29:40;;;;;;;21.02;12.15;;;2.70;99.90;;;;;;6186601;23;20070;-89
2021/04/21 02:32:13;;;;;;;16.95;11.05;;;2.70;99.90;;;;;;6212966;23;20023;-88
2021/04/21 02:34:52;;;;;;;14.73;11.30;;;2.70;99.90;;;;;;6212265;23;20035;-89
2021/04/21 02:37:24;;;;;;;20.30;13.43;;;2.70;99.90;;;;;;6196605;23;20123;-88
2021/04/21 02:40:18;;;;;;;44.60;24.90;;;2.80;99.90;;;;;;6186860;23;20055;-88
2021/04/21 02:43:06;;;;;;;33.97;20.55;;;2.90;99.90;;;;;;6185863;23;20009;-89
2021/04/21 02:45:35;;;;;;;41.90;23.23;;;3.00;99.90;;;;;;6185696;23;20316;-90
2021/04/21 02:48:18;;;;;;;32.45;19.98;;;3.10;99.90;;;;;;6186229;23;20016;-90
2021/04/21 02:50:47;;;;;;;30.77;19.58;;;3.30;99.90;;;;;;6186056;23;20233;-89
2021/04/21 02:53:44;;;;;;;27.00;16.27;;;3.50;99.90;;;;;;6186599;23;20090;-89
2021/04/21 02:56:33;;;;;;;25.90;16.13;;;3.50;99.90;;;;;;6188871;23;20068;-89
2021/04/21 02:59:17;;;;;;;22.42;14.65;;;3.50;99.90;;;;;;6196183;23;20070;-89
2021/04/21 03:01:57;;;;;;;26.92;16.17;;;3.40;99.90;;;;;;6185580;23;20697;-89
2021/04/21 03:04:48;;;;;;;24.25;15.38;;;3.40;99.90;;;;;;6208883;23;20470;-89
2021/04/21 03:07:27;;;;;;;27.10;15.07;;;3.30;99.90;;;;;;6211608;23;20386;-89
2021/04/21 03:10:01;;;;;;;18.13;13.07;;;3.40;99.90;;;;;;6223432;23;20462;-89
2021/04/21 03:12:29;;;;;;;25.27;14.85;;;3.50;99.90;;;;;;6212402;23;20040;-90
2021/04/21 03:15:03;;;;;;;21.77;14.00;;;3.60;99.90;;;;;;6211872;23;20022;-92
2021/04/21 03:17:29;;;;;;;24.58;15.77;;;3.60;99.90;;;;;;6222614;23;20051;-89
2021/04/21 03:20:07;;;;;;;35.65;17.15;;;3.90;99.90;;;;;;6212160;23;20029;-89
2021/04/21 03:22:35;;;;;;;39.53;22.83;;;4.00;99.90;;;;;;6211392;23;20074;-89
2021/04/21 03:25:26;;;;;;;37.47;20.25;;;4.30;99.90;;;;;;6188679;23;20017;-89
2021/04/21 03:27:58;;;;;;;43.17;25.98;;;4.50;99.90;;;;;;6222718;23;20457;-88
2021/04/21 03:30:27;;;;;;;49.55;26.85;;;4.70;99.90;;;;;;6224830;23;20013;-89
2021/04/21 03:33:09;;;;;;;48.60;26.60;;;4.80;99.90;;;;;;6212970;23;20020;-88
2021/04/21 03:35:37;;;;;;;50.45;30.70;;;4.80;99.90;;;;;;6224032;23;20025;-88
2021/04/21 03:38:05;;;;;;;50.25;28.45;;;4.90;99.90;;;;;;6214603;23;20070;-89
2021/04/21 03:40:33;;;;;;;48.08;27.05;;;5.00;99.90;;;;;;6213998;23;20020;-89
2021/04/21 03:43:00;;;;;;;57.95;31.30;;;4.90;99.90;;;;;;6213627;23;20438;-88
2021/04/21 03:45:28;;;;;;;61.45;33.45;;;5.00;99.90;;;;;;6188165;23;20406;-91
2021/04/21 03:47:55;;;;;;;65.22;32.95;;;5.10;99.90;;;;;;6214491;23;20020;-89
2021/04/21 03:50:23;;;;;;;50.00;30.60;;;5.30;99.90;;;;;;6213139;23;20017;-90
2021/04/21 03:52:55;;;;;;;52.80;32.55;;;5.40;99.90;;;;;;6213704;23;20584;-89
2021/04/21 03:55:22;;;;;;;60.90;34.65;;;5.50;99.90;;;;;;6214633;23;20013;-88
2021/04/21 03:57:52;;;;;;;54.28;30.77;;;5.50;99.90;;;;;;6187524;23;20603;-88
2021/04/21 04:00:20;;;;;;;63.58;36.10;;;5.50;99.90;;;;;;6223085;23;20354;-89
2021/04/21 04:03:02;;;;;;;55.58;32.03;;;5.50;99.90;;;;;;6217067;23;20020;-90
2021/04/21 04:05:31;;;;;;;61.67;35.10;;;5.60;99.90;;;;;;6187417;23;20013;-90
2021/04/21 04:08:02;;;;;;;67.70;38.38;;;5.60;99.90;;;;;;6214713;23;20024;-89
2021/04/21 04:10:33;;;;;;;69.82;39.72;;;5.70;99.90;;;;;;6214123;23;20023;-89
2021/04/21 04:13:03;;;;;;;78.10;43.92;;;5.70;99.90;;;;;;6214514;23;20021;-89
2021/04/21 04:15:30;;;;;;;80.67;46.20;;;5.60;99.90;;;;;;6188020;23;20021;-91
2021/04/21 04:17:57;;;;;;;87.15;47.08;;;5.60;99.90;;;;;;6187391;23;20256;-88
2021/04/21 04:20:24;;;;;;;90.13;47.97;;;5.70;99.90;;;;;;6187560;23;20473;-88
2021/04/21 04:22:51;;;;;;;89.28;51.53;;;5.70;99.90;;;;;;6186837;23;20175;-88
2021/04/21 04:25:18;;;;;;;88.60;49.28;;;5.70;99.90;;;;;;6214323;23;20066;-87
2021/04/21 04:27:46;;;;;;;87.32;54.50;;;5.90;99.90;;;;;;6187041;23;20012;-88
2021/04/21 04:30:14;;;;;;;85.35;47.83;;;5.90;99.90;;;;;;6214245;23;20019;-88
2021/04/21 04:32:42;;;;;;;46.50;31.10;;;6.00;99.90;;;;;;6186834;23;20021;-88
2021/04/21 04:35:10;;;;;;;46.65;29.50;;;6.00;99.90;;;;;;6187589;23;20024;-88
2021/04/21 04:37:39;;;;;;;77.03;43.92;;;5.80;99.90;;;;;;6187197;23;20017;-91
2021/04/21 04:40:08;;;;;;;71.63;40.88;;;5.80;99.90;;;;;;6213824;23;20096;-89
2021/04/21 04:42:36;;;;;;;58.90;37.67;;;5.80;99.90;;;;;;6186984;23;20027;-90
2021/04/21 04:45:04;;;;;;;59.83;37.88;;;5.80;99.90;;;;;;6187667;23;20078;-89
2021/04/21 04:47:37;;;;;;;44.80;29.30;;;5.80;99.90;;;;;;6213736;23;20506;-91
2021/04/21 04:50:09;;;;;;;58.08;35.13;;;5.80;99.90;;;;;;6213916;23;20025;-90
2021/04/21 04:52:38;;;;;;;70.03;36.60;;;5.70;99.90;;;;;;6187369;23;20457;-92
2021/04/21 04:55:08;;;;;;;55.90;34.95;;;5.60;99.90;;;;;;6187088;23;20024;-89
2021/04/21 04:57:37;;;;;;;74.13;40.08;;;5.60;99.90;;;;;;6162618;23;20017;-91
2021/04/21 05:00:08;;;;;;;49.67;33.08;;;5.70;99.90;;;;;;6187576;23;20055;-89
2021/04/21 05:02:40;;;;;;;67.20;39.65;;;5.70;99.90;;;;;;6197106;23;20450;-91
2021/04/21 05:05:08;;;;;;;41.95;28.63;;;5.80;99.90;;;;;;6224090;23;20013;-88
2021/04/21 05:07:38;;;;;;;45.88;29.20;;;5.90;99.90;;;;;;6187047;23;20009;-91
2021/04/21 05:10:09;;;;;;;48.30;26.75;;;6.00;99.90;;;;;;6187241;23;20017;-88
2021/04/21 05:12:42;;;;;;;28.60;17.85;;;6.10;99.90;;;;;;6186973;23;20028;-91
2021/04/21 05:15:37;;;;;;;26.02;16.27;;;6.20;99.90;;;;;;6212434;23;20028;-88
2021/04/21 05:18:21;;;;;;;25.67;15.10;;;6.30;99.90;;;;;;6187301;23;20027;-89
2021/04/21 05:21:29;;;;;;;30.98;16.45;;;6.40;99.90;;;;;;6212886;23;20434;-88
2021/04/21 05:24:01;;;;;;;28.40;15.13;;;6.50;99.90;;;;;;6190581;23;20187;-89
2021/04/21 05:26:49;;;;;;;22.80;14.45;;;6.60;99.90;;;;;;6197604;23;20027;-89
2021/04/21 05:29:34;;;;;;;20.92;12.45;;;6.70;99.90;;;;;;6213655;23;20024;-91
2021/04/21 05:32:18;;;;;;;31.98;13.93;;;6.80;99.90;;;;;;6212704;23;20047;-89
2021/04/21 05:34:59;;;;;;;23.50;13.57;;;6.90;99.90;;;;;;6196757;23;20024;-88
2021/04/21 05:37:43;;;;;;;;;;;7.00;99.90;;;;;;6197621;23;20108;-88
2021/04/21 05:40:43;;;;;;;25.45;13.15;;;7.10;99.90;;;;;;6214288;23;19915;-88
2021/04/21 05:43:30;;;;;;;24.85;14.23;;;7.20;99.90;;;;;;6186931;23;20036;-88
2021/04/21 05:46:20;;;;;;;30.58;16.38;;;7.30;99.90;;;;;;6186329;23;20021;-88
2021/04/21 05:49:14;;;;;;;38.90;18.63;;;7.50;99.90;;;;;;6212738;23;20066;-89
2021/04/21 05:51:57;;;;;;;47.10;19.75;;;7.70;99.90;;;;;;6213273;23;20017;-91
2021/04/21 05:54:41;;;;;;;37.85;17.65;;;7.80;99.90;;;;;;6196788;23;20732;-89
2021/04/21 05:57:26;;;;;;;44.72;21.42;;;7.90;99.90;;;;;;6187099;23;20020;-88
2021/04/21 06:00:00;;;;;;;47.65;22.77;;;8.10;99.90;;;;;;6186428;23;20074;-90
2021/04/21 06:02:30;;;;;;;32.50;16.23;;;8.20;99.90;;;;;;6187037;23;20021;-88
2021/04/21 06:05:13;;;;;;;41.75;20.23;;;8.30;99.90;;;;;;6212513;23;20017;-89
2021/04/21 06:07:40;;;;;;;27.05;16.38;;;8.40;99.90;;;;;;6186699;23;20019;-91
2021/04/21 06:10:25;;;;;;;39.95;22.15;;;8.50;99.90;;;;;;6213090;23;20083;-89
2021/04/21 06:12:53;;;;;;;46.40;23.85;;;8.60;99.90;;;;;;6186291;23;20082;-87
2021/04/21 06:15:27;;;;;;;41.92;17.17;;;8.80;99.90;;;;;;6213175;23;20021;-88
2021/04/21 06:17:58;;;;;;;35.83;15.48;;;8.70;99.90;;;;;;6196537;23;20028;-88
2021/04/21 06:20:39;;;;;;;38.97;21.55;;;8.80;99.90;;;;;;6213636;23;20020;-88
2021/04/21 06:23:09;;;;;;;35.75;20.83;;;8.90;99.90;;;;;;6196268;23;20019;-87
2021/04/21 06:25:37;;;;;;;40.25;21.10;;;9.00;99.90;;;;;;6161889;23;20366;-90
2021/04/21 06:28:07;;;;;;;36.17;17.55;;;9.10;99.90;;;;;;6186106;23;20019;-89
2021/04/21 06:30:34;;;;;;;36.22;17.33;;;9.20;99.90;;;;;;6187360;23;20020;-88
2021/04/21 06:33:02;;;;;;;35.58;14.20;;;9.20;99.90;;;;;;6212931;23;20016;-89
2021/04/21 06:35:29;;;;;;;51.40;26.67;;;9.20;99.90;;;;;;6162469;23;20035;-88
2021/04/21 06:37:56;;;;;;;45.10;25.40;;;9.20;99.90;;;;;;6186088;23;20047;-88
2021/04/21 06:40:27;;;;;;;41.35;20.90;;;9.20;99.90;;;;;;6187127;23;20070;-88
2021/04/21 06:42:54;;;;;;;57.13;30.13;;;9.20;99.90;;;;;;6161209;23;20066;-88
2021/04/21 06:45:25;;;;;;;47.85;23.27;;;9.20;99.90;;;;;;6162793;23;20023;-89
2021/04/21 06:47:53;;;;;;;35.80;17.02;;;9.10;99.90;;;;;;6186307;23;20428;-89
2021/04/21 06:50:27;;;;;;;33.63;16.80;;;9.00;99.90;;;;;;6186739;23;20094;-89
2021/04/21 06:52:58;;;;;;;49.70;20.58;;;9.00;99.90;;;;;;6160856;23;20028;-89
2021/04/21 06:55:25;;;;;;;40.70;16.73;;;8.90;99.90;;;;;;6196849;23;20023;-88
2021/04/21 06:57:51;;;;;;;41.38;20.67;;;8.90;99.90;;;;;;6188074;23;20030;-89
2021/04/21 07:00:19;;;;;;;38.03;17.40;;;8.90;99.90;;;;;;6189004;23;20502;-88
2021/04/21 07:02:48;;;;;;;38.35;18.98;;;8.90;99.90;;;;;;6212537;23;20087;-93
2021/04/21 07:05:36;;;;;;;30.98;16.58;;;8.80;99.90;;;;;;6223317;23;20020;-89
2021/04/21 07:08:06;;;;;;;34.40;13.13;;;8.70;99.90;;;;;;6196161;23;20036;-89
2021/04/21 07:10:43;;;;;;;24.60;12.32;;;8.70;99.90;;;;;;6186931;23;20074;-89
2021/04/21 07:13:15;;;;;;;36.92;16.17;;;8.60;99.90;;;;;;6213127;23;20017;-88
2021/04/21 07:15:41;;;;;;;29.92;16.65;;;8.60;99.90;;;;;;6188249;23;20016;-90
2021/04/21 07:18:15;;;;;;;37.00;17.88;;;8.60;99.90;;;;;;6188038;23;20096;-89
2021/04/21 07:20:41;;;;;;;27.70;15.25;;;8.70;99.90;;;;;;6214787;23;20016;-89
2021/04/21 07:23:11;;;;;;;42.10;20.55;;;8.70;99.90;;;;;;6139630;23;20035;-89
2021/04/21 07:25:38;;;;;;;40.30;20.48;;;8.70;99.90;;;;;;6188134;23;20016;-89
2021/04/21 07:28:06;;;;;;;36.17;17.30;;;8.70;99.90;;;;;;6214150;23;20356;-89
2021/04/21 07:30:33;;;;;;;40.38;18.30;;;8.60;99.90;;;;;;6188251;23;20055;-90
2021/04/21 07:33:00;;;;;;;45.13;19.30;;;8.60;99.90;;;;;;6188047;23;20095;-88
2021/04/21 07:35:29;;;;;;;37.25;15.68;;;8.60;99.90;;;;;;6188176;23;20032;-90
2021/04/21 07:37:57;;;;;;;37.55;13.68;;;8.60;99.90;;;;;;6214023;23;20342;-90
2021/04/21 07:40:33;;;;;;;29.67;16.15;;;8.70;99.90;;;;;;6215349;23;20020;-89
2021/04/21 07:43:05;;;;;;;28.65;10.90;;;8.80;99.90;;;;;;6214393;23;20025;-88
2021/04/21 07:45:44;;;;;;;34.63;17.48;;;8.90;99.90;;;;;;6214956;23;20025;-88
2021/04/21 07:48:36;;;;;;;31.70;15.25;;;9.00;99.90;;;;;;6187852;23;20028;-88
2021/04/21 07:51:26;;;;;;;17.00;10.88;;;9.00;99.90;;;;;;6214002;23;20028;-90
2021/04/21 07:54:03;;;;;;;18.83;10.50;;;9.10;99.90;;;;;;6187209;23;20091;-90
2021/04/21 07:56:56;;;;;;;21.83;8.90;;;9.20;99.90;;;;;;6197825;23;20013;-90
2021/04/21 07:59:45;;;;;;;17.45;7.60;;;9.10;99.90;;;;;;6183532;23;20043;-92
2021/04/21 08:02:20;;;;;;;9.88;3.92;;;9.20;99.90;;;;;;6185954;23;20108;-89
2021/04/21 08:05:11;;;;;;;17.05;6.78;;;9.10;99.90;;;;;;6170506;23;20059;-89
2021/04/21 08:07:54;;;;;;;20.63;5.28;;;9.10;99.90;;;;;;6198323;23;20012;-91
2021/04/21 08:10:21;;;;;;;13.35;7.40;;;9.20;99.90;;;;;;6198222;23;20039;-90
2021/04/21 08:12:47;;;;;;;14.63;5.72;;;9.30;99.90;;;;;;6188026;23;20024;-90
2021/04/21 08:15:13;;;;;;;11.57;5.70;;;9.20;99.90;;;;;;6187585;23;20021;-90
2021/04/21 08:17:49;;;;;;;5.28;3.40;;;9.20;99.90;;;;;;6137840;23;20086;-90
2021/04/21 08:20:30;;;;;;;8.13;3.70;;;9.10;99.90;;;;;;6187595;23;20028;-92
2021/04/21 08:23:05;;;;;;;6.28;3.00;;;9.10;99.90;;;;;;6223777;23;20012;-89
2021/04/21 08:25:31;;;;;;;1.58;0.90;;;9.10;99.90;;;;;;6197106;23;20017;-91
2021/04/21 08:27:58;;;;;;;3.40;1.40;;;9.10;99.90;;;;;;6137514;23;20040;-91
2021/04/21 08:30:26;;;;;;;3.95;1.17;;;9.10;99.90;;;;;;6214340;23;20017;-91
2021/04/21 08:32:51;;;;;;;2.53;1.30;;;9.10;99.90;;;;;;6187570;23;20442;-94
2021/04/21 08:35:18;;;;;;;8.13;2.05;;;9.10;99.90;;;;;;6187877;23;20021;-90
2021/04/21 08:37:44;;;;;;;6.55;1.58;;;9.20;99.90;;;;;;6186016;23;20020;-91
2021/04/21 08:40:13;;;;;;;4.75;1.30;;;9.20;99.90;;;;;;6212088;23;20027;-90
2021/04/21 08:42:42;;;;;;;6.88;1.27;;;9.20;99.90;;;;;;6186169;23;20024;-91
2021/04/21 08:45:10;;;;;;;7.95;2.20;;;9.10;99.90;;;;;;6185511;23;20020;-91
2021/04/21 08:47:39;;;;;;;7.03;1.58;;;9.10;99.90;;;;;;6187312;23;20016;-91
2021/04/21 08:50:05;;;;;;;11.98;2.42;;;8.90;99.90;;;;;;6161949;23;20027;-91
2021/04/21 08:52:51;;;;;;;3.50;1.38;;;8.90;99.90;;;;;;6187743;23;20020;-92
2021/04/21 08:55:22;;;;;;;4.68;1.15;;;8.90;99.90;;;;;;6198415;23;20071;-89
2021/04/21 08:57:48;;;;;;;4.80;1.15;;;8.90;99.90;;;;;;6187940;23;20016;-90
2021/04/21 09:00:16;;;;;;;7.05;0.95;;;8.90;99.90;;;;;;6137509;23;20020;-90
2021/04/21 09:02:43;;;;;;;8.55;1.13;;;8.90;99.90;;;;;;6187756;23;20071;-90
2021/04/21 09:05:11;;;;;;;13.57;1.38;;;8.90;99.90;;;;;;6183562;23;20040;-90
2021/04/21 09:07:38;;;;;;;4.85;0.98;;;9.10;99.90;;;;;;6213607;23;20104;-90
2021/04/21 09:10:16;;;;;;;4.13;1.10;;;9.10;99.90;;;;;;6213167;23;20043;-90
2021/04/21 09:12:43;;;;;;;4.63;0.90;;;9.20;99.90;;;;;;6223885;23;20020;-89
2021/04/21 09:15:11;;;;;;;4.18;0.93;;;9.20;99.90;;;;;;6213236;23;20032;-90
2021/04/21 09:17:46;;;;;;;9.25;1.63;;;9.20;99.90;;;;;;6212520;23;20174;-91
2021/04/21 09:20:14;;;;;;;11.20;1.30;;;9.20;99.90;;;;;;6187438;23;20026;-90
2021/04/21 09:23:03;;;;;;;4.47;0.77;;;9.30;99.90;;;;;;6187329;23;20027;-91
2021/04/21 09:25:37;;;;;;;8.88;1.13;;;9.30;99.90;;;;;;6187678;23;20016;-89
2021/04/21 09:28:04;;;;;;;16.40;2.97;;;9.30;99.90;;;;;;6211303;23;20013;-90
2021/04/21 09:30:30;;;;;;;7.68;1.35;;;9.40;99.90;;;;;;6187764;23;20020;-90
2021/04/21 09:32:58;;;;;;;11.45;1.25;;;9.50;99.90;;;;;;6162717;23;20039;-92
2021/04/21 09:35:25;;;;;;;4.10;1.10;;;9.60;99.90;;;;;;6187592;23;20454;-92
2021/04/21 09:38:16;;;;;;;5.55;1.35;;;9.70;99.90;;;;;;6212066;23;20040;-90
2021/04/21 09:40:53;;;;;;;6.43;1.33;;;9.80;99.90;;;;;;6212485;23;20012;-90
2021/04/21 09:43:22;;;;;;;6.07;1.20;;;10.00;99.90;;;;;;6186567;23;20673;-92
2021/04/21 09:46:03;;;;;;;9.23;1.20;;;10.00;99.90;;;;;;6213236;23;20510;-92
2021/04/21 09:48:35;;;;;;;7.55;0.95;;;10.00;99.90;;;;;;6211706;23;20013;-91
2021/04/21 09:51:05;;;;;;;10.73;1.60;;;10.20;99.90;;;;;;6211579;23;20044;-91
2021/04/21 09:53:36;;;;;;;13.90;2.05;;;10.30;99.90;;;;;;6214077;23;20017;-91
2021/04/21 09:56:24;;;;;;;12.00;1.65;;;10.30;99.90;;;;;;6212634;23;20438;-93
2021/04/21 09:59:01;;;;;;;2.95;1.00;;;10.20;99.90;;;;;;6210725;23;20017;-92
2021/04/21 10:01:42;;;;;;;13.38;2.13;;;10.00;99.90;;;;;;6186151;23;20020;-93
2021/04/21 10:04:33;;;;;;;10.23;1.80;;;9.90;99.90;;;;;;6184862;23;20069;-93
2021/04/21 10:08:10;;;;;;;15.43;1.83;;;9.70;99.90;;;;;;6185079;23;20256;-91
2021/04/21 10:15:48;;;;;;;18.77;2.78;;;9.60;99.90;;;;;;6120197;23;20326;-93
2021/04/21 10:23:16;;;;;;;16.85;1.88;;;10.00;99.90;;;;;;6083180;23;20029;-92
2021/04/21 10:30:15;;;;;;;9.98;1.52;;;10.20;99.90;;;;;;6060488;23;20450;-94
2021/04/21 10:33:15;;;;;;;13.15;2.13;;;10.10;99.90;;;;;;5929445;24;20024;-92
2021/04/21 10:36:13;;;;;;;14.82;1.92;;;10.30;99.90;;;;;;5906413;24;20400;-92
2021/04/21 10:39:43;;;;;;;19.15;2.85;;;10.20;99.90;;;;;;5936272;24;20518;-93
2021/04/21 10:42:28;;;;;;;19.67;2.38;;;10.10;99.90;;;;;;5931639;24;20029;-93
2021/04/21 10:53:18;;;;;;;;;;;;;;;;;;;;;
2021/04/21 11:08:42;;;;;;;18.65;2.50;;;10.20;99.90;;;;;;6181433;23;20024;-92
2021/04/21 11:34:29;;;;;;;12.98;2.33;;;10.20;99.90;;;;;;5896124;24;20491;-93
2021/04/21 11:37:29;;;;;;;22.30;2.42;;;10.30;99.90;;;;;;5875424;24;20318;-91
2021/04/21 11:40:32;;;;;;;19.15;2.42;;;10.30;99.90;;;;;;5850453;24;20040;-91
2021/04/21 11:46:39;;;;;;;16.63;2.78;;;9.90;99.90;;;;;;5978106;23;20028;-91
2021/04/21 11:49:42;;;;;;;15.70;2.60;;;10.10;99.90;;;;;;6007228;23;20018;-91
2021/04/21 11:52:52;;;;;;;17.90;2.88;;;10.10;99.90;;;;;;6066969;23;20026;-91
2021/04/21 11:55:35;;;;;;;14.20;2.15;;;10.10;99.90;;;;;;6041040;23;20025;-92
2021/04/21 11:58:21;;;;;;;11.05;2.08;;;10.00;99.90;;;;;;6092394;23;20029;-91
2021/04/21 12:00:59;;;;;;;8.75;1.38;;;9.90;99.90;;;;;;6077983;23;20066;-91
2021/04/21 12:03:45;;;;;;;;;;;9.80;99.90;;;;;;6170903;23;20087;-91
2021/04/21 12:09:06;;;;;;;12.73;2.03;;;9.80;99.90;;;;;;6135601;23;20019;-91
2021/04/21 12:12:04;;;;;;;11.57;1.38;;;9.90;99.90;;;;;;6189033;23;20111;-91
2021/04/21 12:14:40;;;;;;;19.90;2.83;;;9.90;99.90;;;;;;6189036;23;20610;-92
2021/04/21 12:17:17;;;;;;;14.52;2.70;;;10.00;99.90;;;;;;6186670;23;20020;-91
2021/04/21 12:19:50;;;;;;;13.88;1.88;;;9.90;99.90;;;;;;6173345;23;20360;-92
2021/04/21 12:22:34;;;;;;;7.18;1.38;;;9.70;99.90;;;;;;6185756;23;20143;-91
2021/04/21 12:25:07;;;;;;;9.38;2.10;;;9.60;99.90;;;;;;6187025;23;20027;-90
2021/04/21 12:27:34;;;;;;;4.88;1.23;;;9.80;99.90;;;;;;6184507;23;20327;-89
2021/04/21 12:30:13;;;;;;;19.17;3.25;;;9.80;99.90;;;;;;6160687;23;20028;-90
2021/04/21 12:32:50;;;;;;;7.05;1.63;;;9.90;99.90;;;;;;6185412;23;20009;-91
2021/04/21 12:35:28;;;;;;;7.82;1.63;;;9.80;99.90;;;;;;6210210;23;20021;-90
2021/04/21 12:37:59;;;;;;;9.85;2.25;;;9.70;99.90;;;;;;6185480;23;20015;-92
2021/04/21 12:40:35;;;;;;;19.17;2.72;;;9.80;99.90;;;;;;6219769;23;20013;-91
2021/04/21 12:43:08;;;;;;;23.38;2.55;;;9.80;99.90;;;;;;6184658;23;20020;-90
2021/04/21 12:45:43;;;;;;;14.07;3.13;;;9.90;99.90;;;;;;6209705;23;20023;-91
2021/04/21 12:48:22;;;;;;;12.90;2.15;;;10.00;99.90;;;;;;6210241;23;20086;-91
2021/04/21 12:50:56;;;;;;;11.13;2.30;;;9.90;99.90;;;;;;6185498;23;20103;-90
2021/04/21 12:53:34;;;;;;;17.88;2.60;;;9.80;99.90;;;;;;6184270;23;20028;-90
2021/04/21 12:56:10;;;;;;;16.65;2.05;;;9.70;99.90;;;;;;6184795;23;20086;-91
2021/04/21 12:58:42;;;;;;;16.02;2.03;;;9.80;99.90;;;;;;6219750;23;20024;-91
2021/04/21 13:01:10;;;;;;;13.70;2.65;;;9.80;99.90;;;;;;6209880;23;20017;-90
2021/04/21 13:03:54;;;;;;;10.90;2.20;;;10.10;99.90;;;;;;6183829;23;20016;-90
2021/04/21 13:06:45;;;;;;;16.38;2.17;;;10.20;99.90;;;;;;6184356;23;20024;-90
2021/04/21 13:09:16;;;;;;;;;;;10.10;99.90;;;;;;6210132;23;20016;-89
2021/04/21 13:12:01;;;;;;;16.42;2.92;;;10.10;99.90;;;;;;6211464;23;20345;-89
2021/04/21 13:14:39;;;;;;;6.75;1.20;;;10.20;99.90;;;;;;6163297;23;20027;-91
2021/04/21 13:17:12;;;;;;;21.38;2.90;;;10.10;99.90;;;;;;6210467;23;20020;-91
2021/04/21 13:19:55;;;;;;;13.90;2.22;;;10.00;99.90;;;;;;6210598;23;20069;-90
2021/04/21 13:22:25;;;;;;;10.48;2.22;;;9.90;99.90;;;;;;6219417;23;20407;-91
2021/04/21 13:24:56;;;;;;;17.05;2.70;;;9.80;99.90;;;;;;6185029;23;20116;-88
2021/04/21 13:27:33;;;;;;;15.35;2.55;;;9.80;99.90;;;;;;6184203;23;20095;-91
2021/04/21 13:33:45;;;;;;;11.65;2.28;;;10.00;99.90;;;;;;6167318;23;20032;-87
2021/04/21 13:36:11;;;;;;;21.85;2.78;;;10.10;99.90;;;;;;6161395;23;20048;-87
2021/04/21 13:38:39;;;;;;;12.02;1.63;;;10.10;99.90;;;;;;6129424;23;20032;-88
2021/04/21 13:41:06;;;;;;;14.85;2.30;;;10.30;99.90;;;;;;6154303;23;20024;-87
2021/04/21 13:43:36;;;;;;;12.05;2.08;;;10.10;99.90;;;;;;6177318;23;20067;-88
2021/04/21 13:46:03;;;;;;;20.23;2.20;;;9.90;99.90;;;;;;6130975;23;20051;-87
2021/04/21 13:48:32;;;;;;;8.13;1.25;;;10.00;99.90;;;;;;6154775;23;20017;-87
2021/04/21 13:50:59;;;;;;;13.57;3.05;;;9.90;99.90;;;;;;6181075;23;20017;-88
2021/04/21 13:53:25;;;;;;;8.95;1.52;;;9.80;99.90;;;;;;6154084;23;20021;-88
2021/04/21 13:55:51;;;;;;;9.57;2.10;;;9.90;99.90;;;;;;6129640;23;20056;-88
2021/04/21 13:58:17;;;;;;;11.32;2.20;;;10.00;99.90;;;;;;6179985;23;20013;-87
2021/04/21 14:00:43;;;;;;;14.52;1.75;;;9.90;99.90;;;;;;6130118;23;20511;-88
2021/04/21 14:03:09;;;;;;;14.20;2.17;;;9.80;99.90;;;;;;6153674;23;20021;-88
2021/04/21 14:05:36;;;;;;;9.98;2.28;;;9.80;99.90;;;;;;6180603;23;20025;-87
2021/04/21 14:08:03;;;;;;;16.65;2.55;;;9.90;99.90;;;;;;6153902;23;20051;-87
2021/04/21 14:10:30;;;;;;;11.65;2.40;;;10.30;99.90;;;;;;6181046;23;20036;-88
2021/04/21 14:12:55;;;;;;;12.38;1.35;;;10.40;99.90;;;;;;6154812;23;20024;-88
2021/04/21 14:15:22;;;;;;;16.52;2.08;;;10.30;99.90;;;;;;6179950;23;20051;-87
2021/04/21 14:17:48;;;;;;;6.95;1.63;;;10.10;99.90;;;;;;6180174;23;20017;-87
2021/04/21 14:20:15;;;;;;;20.73;2.53;;;10.00;99.90;;;;;;6153116;23;20078;-87
2021/04/21 14:22:45;;;;;;;16.50;1.90;;;10.10;99.90;;;;;;6154606;23;20522;-87
2021/04/21 14:25:13;;;;;;;18.02;2.30;;;10.40;99.90;;;;;;6153728;23;20021;-88
2021/04/21 14:27:39;;;;;;;17.13;1.70;;;10.60;99.90;;;;;;6178258;23;20028;-87
2021/04/21 14:30:06;;;;;;;21.10;2.05;;;10.60;99.90;;;;;;6180507;23;20021;-89